sensor_id;sensor_type;location;lat;lon;timestamp;P1;durP1;ratioP1;P2;durP2;ratioP2
19739;SDS011;10027;51.066;13.768;2023-02-13T00:00:45;17.70;;;9.77;;
19739;SDS011;10027;51.066;13.768;2023-02-13T00:03:12;20.50;;;9.57;;
19739;SDS011;10027;51.066;13.768;2023-02-13T00:05:39;17.53;;;9.97;;
19739;SDS011;10027;51.066;13.768;2023-02-13T00:08:06;18.67;;;9.60;;
19739;SDS011;10027;51.066;13.768;2023-02-13T00:10:33;17.90;;;9.37;;
19739;SDS011;10027;51.066;13.768;2023-02-13T00:13:01;18.07;;;9.37;;
19739;SDS011;10027;51.066;13.768;2023-02-13T00:15:28;17.87;;;9.13;;
19739;SDS011;10027;51.066;13.768;2023-02-13T00:17:55;19.73;;;9.40;;
19739;SDS011;10027;51.066;13.768;2023-02-13T00:20:22;16.50;;;8.97;;
19739;SDS011;10027;51.066;13.768;2023-02-13T00:22:49;19.73;;;9.83;;
19739;SDS011;10027;51.066;13.768;2023-02-13T00:25:16;16.63;;;9.10;;
19739;SDS011;10027;51.066;13.768;2023-02-13T00:27:43;17.00;;;9.20;;
19739;SDS011;10027;51.066;13.768;2023-02-13T00:30:11;18.33;;;9.17;;
19739;SDS011;10027;51.066;13.768;2023-02-13T00:32:38;18.00;;;9.20;;
19739;SDS011;10027;51.066;13.768;2023-02-13T00:35:05;19.90;;;9.47;;
19739;SDS011;10027;51.066;13.768;2023-02-13T00:37:32;19.27;;;9.10;;
19739;SDS011;10027;51.066;13.768;2023-02-13T00:39:59;18.20;;;8.87;;
19739;SDS011;10027;51.066;13.768;2023-02-13T00:42:27;19.67;;;8.77;;
19739;SDS011;10027;51.066;13.768;2023-02-13T00:44:54;16.50;;;9.10;;
19739;SDS011;10027;51.066;13.768;2023-02-13T00:47:21;17.67;;;9.70;;
19739;SDS011;10027;51.066;13.768;2023-02-13T00:49:48;19.63;;;8.87;;
19739;SDS011;10027;51.066;13.768;2023-02-13T00:52:15;15.07;;;8.57;;
19739;SDS011;10027;51.066;13.768;2023-02-13T00:54:42;17.80;;;9.40;;
19739;SDS011;10027;51.066;13.768;2023-02-13T00:57:09;18.77;;;8.87;;
19739;SDS011;10027;51.066;13.768;2023-02-13T00:59:36;18.20;;;8.97;;
19739;SDS011;10027;51.066;13.768;2023-02-13T01:02:03;18.30;;;9.30;;
19739;SDS011;10027;51.066;13.768;2023-02-13T01:04:30;19.40;;;9.40;;
19739;SDS011;10027;51.066;13.768;2023-02-13T01:06:57;17.33;;;9.27;;
19739;SDS011;10027;51.066;13.768;2023-02-13T01:09:25;19.80;;;9.90;;
19739;SDS011;10027;51.066;13.768;2023-02-13T01:11:52;17.67;;;9.53;;
19739;SDS011;10027;51.066;13.768;2023-02-13T01:14:19;21.67;;;10.10;;
19739;SDS011;10027;51.066;13.768;2023-02-13T01:16:46;18.93;;;9.40;;
19739;SDS011;10027;51.066;13.768;2023-02-13T01:19:13;17.97;;;9.50;;
19739;SDS011;10027;51.066;13.768;2023-02-13T01:21:41;18.80;;;9.90;;
19739;SDS011;10027;51.066;13.768;2023-02-13T01:24:09;19.30;;;9.07;;
19739;SDS011;10027;51.066;13.768;2023-02-13T01:26:36;17.40;;;8.93;;
19739;SDS011;10027;51.066;13.768;2023-02-13T01:29:03;17.37;;;9.23;;
19739;SDS011;10027;51.066;13.768;2023-02-13T01:31:30;20.90;;;10.27;;
19739;SDS011;10027;51.066;13.768;2023-02-13T01:33:58;17.17;;;9.00;;
19739;SDS011;10027;51.066;13.768;2023-02-13T01:36:25;17.60;;;9.10;;
19739;SDS011;10027;51.066;13.768;2023-02-13T01:38:54;17.30;;;8.87;;
19739;SDS011;10027;51.066;13.768;2023-02-13T01:41:21;16.50;;;9.27;;
19739;SDS011;10027;51.066;13.768;2023-02-13T01:43:50;18.17;;;9.40;;
19739;SDS011;10027;51.066;13.768;2023-02-13T01:46:28;17.57;;;8.80;;
19739;SDS011;10027;51.066;13.768;2023-02-13T01:48:58;19.60;;;8.87;;
19739;SDS011;10027;51.066;13.768;2023-02-13T01:51:29;17.83;;;8.97;;
19739;SDS011;10027;51.066;13.768;2023-02-13T01:54:01;16.00;;;8.90;;
19739;SDS011;10027;51.066;13.768;2023-02-13T01:56:33;15.90;;;8.30;;
19739;SDS011;10027;51.066;13.768;2023-02-13T01:59:04;17.53;;;9.23;;
19739;SDS011;10027;51.066;13.768;2023-02-13T02:01:32;17.50;;;9.17;;
19739;SDS011;10027;51.066;13.768;2023-02-13T02:04:05;14.13;;;8.10;;
19739;SDS011;10027;51.066;13.768;2023-02-13T02:06:35;15.67;;;8.80;;
19739;SDS011;10027;51.066;13.768;2023-02-13T02:09:05;14.90;;;8.33;;
19739;SDS011;10027;51.066;13.768;2023-02-13T02:14:19;17.27;;;8.40;;
19739;SDS011;10027;51.066;13.768;2023-02-13T02:16:46;15.53;;;8.53;;
19739;SDS011;10027;51.066;13.768;2023-02-13T02:32:32;16.43;;;8.27;;
19739;SDS011;10027;51.066;13.768;2023-02-13T02:47:25;18.93;;;9.00;;
19739;SDS011;10027;51.066;13.768;2023-02-13T02:52:41;18.93;;;8.73;;
19739;SDS011;10027;51.066;13.768;2023-02-13T02:55:21;15.03;;;8.20;;
19739;SDS011;10027;51.066;13.768;2023-02-13T03:00:48;17.73;;;8.50;;
19739;SDS011;10027;51.066;13.768;2023-02-13T03:03:35;21.47;;;9.10;;
19739;SDS011;10027;51.066;13.768;2023-02-13T03:06:24;20.00;;;8.97;;
19739;SDS011;10027;51.066;13.768;2023-02-13T03:08:56;19.40;;;8.93;;
19739;SDS011;10027;51.066;13.768;2023-02-13T03:11:43;19.63;;;9.13;;
19739;SDS011;10027;51.066;13.768;2023-02-13T03:14:30;20.20;;;9.10;;
19739;SDS011;10027;51.066;13.768;2023-02-13T03:16:57;24.63;;;9.33;;
19739;SDS011;10027;51.066;13.768;2023-02-13T03:19:52;22.60;;;9.53;;
19739;SDS011;10027;51.066;13.768;2023-02-13T03:25:10;22.27;;;9.50;;
19739;SDS011;10027;51.066;13.768;2023-02-13T03:38:48;24.07;;;9.37;;
19739;SDS011;10027;51.066;13.768;2023-02-13T03:41:19;19.23;;;9.23;;
19739;SDS011;10027;51.066;13.768;2023-02-13T03:46:15;21.50;;;9.07;;
19739;SDS011;10027;51.066;13.768;2023-02-13T03:48:44;19.57;;;9.20;;
19739;SDS011;10027;51.066;13.768;2023-02-13T03:54:04;27.77;;;10.07;;
19739;SDS011;10027;51.066;13.768;2023-02-13T03:56:33;21.80;;;8.60;;
19739;SDS011;10027;51.066;13.768;2023-02-13T03:59:21;22.00;;;9.43;;
19739;SDS011;10027;51.066;13.768;2023-02-13T04:02:24;26.17;;;9.33;;
19739;SDS011;10027;51.066;13.768;2023-02-13T04:07:15;25.80;;;10.03;;
19739;SDS011;10027;51.066;13.768;2023-02-13T04:09:57;20.63;;;9.93;;
19739;SDS011;10027;51.066;13.768;2023-02-13T04:12:30;21.80;;;9.33;;
19739;SDS011;10027;51.066;13.768;2023-02-13T04:15:14;20.27;;;9.53;;
19739;SDS011;10027;51.066;13.768;2023-02-13T04:17:45;21.37;;;9.37;;
19739;SDS011;10027;51.066;13.768;2023-02-13T04:20:14;22.33;;;9.37;;
19739;SDS011;10027;51.066;13.768;2023-02-13T04:22:42;23.30;;;9.30;;
19739;SDS011;10027;51.066;13.768;2023-02-13T04:25:11;21.43;;;9.83;;
19739;SDS011;10027;51.066;13.768;2023-02-13T04:27:38;21.80;;;9.87;;
19739;SDS011;10027;51.066;13.768;2023-02-13T04:30:05;18.40;;;9.23;;
19739;SDS011;10027;51.066;13.768;2023-02-13T04:32:33;24.90;;;9.17;;
19739;SDS011;10027;51.066;13.768;2023-02-13T04:35:00;22.00;;;9.57;;
19739;SDS011;10027;51.066;13.768;2023-02-13T04:37:27;23.73;;;9.70;;
19739;SDS011;10027;51.066;13.768;2023-02-13T04:39:54;22.60;;;9.47;;
19739;SDS011;10027;51.066;13.768;2023-02-13T04:42:21;18.03;;;9.70;;
19739;SDS011;10027;51.066;13.768;2023-02-13T04:44:48;15.77;;;8.30;;
19739;SDS011;10027;51.066;13.768;2023-02-13T04:47:15;21.97;;;9.23;;
19739;SDS011;10027;51.066;13.768;2023-02-13T04:49:43;18.97;;;8.87;;
19739;SDS011;10027;51.066;13.768;2023-02-13T04:52:10;23.63;;;9.27;;
19739;SDS011;10027;51.066;13.768;2023-02-13T04:54:37;17.33;;;8.60;;
19739;SDS011;10027;51.066;13.768;2023-02-13T04:57:04;16.90;;;8.70;;
19739;SDS011;10027;51.066;13.768;2023-02-13T04:59:31;16.77;;;8.37;;
19739;SDS011;10027;51.066;13.768;2023-02-13T05:01:58;19.53;;;9.07;;
19739;SDS011;10027;51.066;13.768;2023-02-13T05:04:25;13.47;;;8.17;;
19739;SDS011;10027;51.066;13.768;2023-02-13T05:06:54;14.77;;;8.23;;
19739;SDS011;10027;51.066;13.768;2023-02-13T05:09:21;15.50;;;8.03;;
19739;SDS011;10027;51.066;13.768;2023-02-13T05:11:50;15.63;;;8.37;;
19739;SDS011;10027;51.066;13.768;2023-02-13T05:14:17;19.03;;;7.40;;
19739;SDS011;10027;51.066;13.768;2023-02-13T05:16:45;17.97;;;8.23;;
19739;SDS011;10027;51.066;13.768;2023-02-13T05:19:12;17.87;;;7.83;;
19739;SDS011;10027;51.066;13.768;2023-02-13T05:21:39;15.50;;;7.80;;
19739;SDS011;10027;51.066;13.768;2023-02-13T05:24:25;15.03;;;8.27;;
19739;SDS011;10027;51.066;13.768;2023-02-13T05:26:52;16.43;;;8.27;;
19739;SDS011;10027;51.066;13.768;2023-02-13T05:29:19;15.33;;;7.90;;
19739;SDS011;10027;51.066;13.768;2023-02-13T05:31:48;13.33;;;7.73;;
19739;SDS011;10027;51.066;13.768;2023-02-13T05:34:17;15.53;;;8.70;;
19739;SDS011;10027;51.066;13.768;2023-02-13T05:36:44;14.37;;;8.23;;
19739;SDS011;10027;51.066;13.768;2023-02-13T05:39:11;14.07;;;7.43;;
19739;SDS011;10027;51.066;13.768;2023-02-13T05:41:38;15.10;;;7.87;;
19739;SDS011;10027;51.066;13.768;2023-02-13T05:44:05;13.47;;;7.33;;
19739;SDS011;10027;51.066;13.768;2023-02-13T05:46:32;15.47;;;8.17;;
19739;SDS011;10027;51.066;13.768;2023-02-13T05:49:00;14.87;;;7.97;;
19739;SDS011;10027;51.066;13.768;2023-02-13T05:51:29;13.77;;;8.10;;
19739;SDS011;10027;51.066;13.768;2023-02-13T05:53:57;14.83;;;8.10;;
19739;SDS011;10027;51.066;13.768;2023-02-13T05:56:24;15.03;;;7.77;;
19739;SDS011;10027;51.066;13.768;2023-02-13T05:58:51;15.80;;;7.77;;
19739;SDS011;10027;51.066;13.768;2023-02-13T06:01:19;14.93;;;8.13;;
19739;SDS011;10027;51.066;13.768;2023-02-13T06:03:47;14.57;;;7.87;;
19739;SDS011;10027;51.066;13.768;2023-02-13T06:06:14;15.97;;;8.60;;
19739;SDS011;10027;51.066;13.768;2023-02-13T06:08:41;12.47;;;7.57;;
19739;SDS011;10027;51.066;13.768;2023-02-13T06:11:09;15.43;;;7.97;;
19739;SDS011;10027;51.066;13.768;2023-02-13T06:13:36;15.80;;;8.47;;
19739;SDS011;10027;51.066;13.768;2023-02-13T06:16:09;16.33;;;8.37;;
19739;SDS011;10027;51.066;13.768;2023-02-13T06:18:36;15.43;;;8.43;;
19739;SDS011;10027;51.066;13.768;2023-02-13T06:21:05;14.60;;;7.63;;
19739;SDS011;10027;51.066;13.768;2023-02-13T06:23:32;15.73;;;8.03;;
19739;SDS011;10027;51.066;13.768;2023-02-13T06:26:06;16.10;;;8.50;;
19739;SDS011;10027;51.066;13.768;2023-02-13T06:28:33;14.70;;;7.67;;
19739;SDS011;10027;51.066;13.768;2023-02-13T06:31:01;15.40;;;7.90;;
19739;SDS011;10027;51.066;13.768;2023-02-13T06:33:28;16.57;;;8.43;;
19739;SDS011;10027;51.066;13.768;2023-02-13T06:35:55;15.87;;;8.57;;
19739;SDS011;10027;51.066;13.768;2023-02-13T06:38:22;20.00;;;9.10;;
19739;SDS011;10027;51.066;13.768;2023-02-13T06:40:49;16.23;;;8.80;;
19739;SDS011;10027;51.066;13.768;2023-02-13T06:43:16;16.53;;;8.93;;
19739;SDS011;10027;51.066;13.768;2023-02-13T06:45:44;16.77;;;8.37;;
19739;SDS011;10027;51.066;13.768;2023-02-13T06:48:12;16.47;;;8.03;;
19739;SDS011;10027;51.066;13.768;2023-02-13T06:50:39;20.30;;;8.60;;
19739;SDS011;10027;51.066;13.768;2023-02-13T06:53:07;19.93;;;8.77;;
19739;SDS011;10027;51.066;13.768;2023-02-13T06:55:34;18.77;;;8.87;;
19739;SDS011;10027;51.066;13.768;2023-02-13T06:58:01;19.97;;;8.73;;
19739;SDS011;10027;51.066;13.768;2023-02-13T07:00:28;15.77;;;8.27;;
19739;SDS011;10027;51.066;13.768;2023-02-13T07:03:00;17.50;;;8.27;;
19739;SDS011;10027;51.066;13.768;2023-02-13T07:05:28;19.70;;;8.83;;
19739;SDS011;10027;51.066;13.768;2023-02-13T07:07:55;20.67;;;8.73;;
19739;SDS011;10027;51.066;13.768;2023-02-13T07:10:23;17.93;;;8.47;;
19739;SDS011;10027;51.066;13.768;2023-02-13T07:12:50;25.73;;;8.37;;
19739;SDS011;10027;51.066;13.768;2023-02-13T07:15:31;18.80;;;8.97;;
19739;SDS011;10027;51.066;13.768;2023-02-13T07:17:58;19.13;;;8.90;;
19739;SDS011;10027;51.066;13.768;2023-02-13T07:20:26;18.50;;;8.87;;
19739;SDS011;10027;51.066;13.768;2023-02-13T07:22:56;20.17;;;9.37;;
19739;SDS011;10027;51.066;13.768;2023-02-13T07:25:24;18.23;;;8.57;;
19739;SDS011;10027;51.066;13.768;2023-02-13T07:27:51;25.60;;;9.20;;
19739;SDS011;10027;51.066;13.768;2023-02-13T07:30:18;20.47;;;8.90;;
19739;SDS011;10027;51.066;13.768;2023-02-13T07:32:45;24.00;;;9.80;;
19739;SDS011;10027;51.066;13.768;2023-02-13T07:35:12;23.20;;;9.47;;
19739;SDS011;10027;51.066;13.768;2023-02-13T07:37:40;23.27;;;9.37;;
19739;SDS011;10027;51.066;13.768;2023-02-13T07:40:07;20.53;;;8.97;;
19739;SDS011;10027;51.066;13.768;2023-02-13T07:42:34;22.20;;;8.93;;
19739;SDS011;10027;51.066;13.768;2023-02-13T07:45:01;20.67;;;9.60;;
19739;SDS011;10027;51.066;13.768;2023-02-13T07:47:31;23.40;;;9.63;;
19739;SDS011;10027;51.066;13.768;2023-02-13T07:49:59;21.13;;;9.50;;
19739;SDS011;10027;51.066;13.768;2023-02-13T07:52:26;22.23;;;9.53;;
19739;SDS011;10027;51.066;13.768;2023-02-13T07:54:53;22.70;;;9.43;;
19739;SDS011;10027;51.066;13.768;2023-02-13T07:57:20;20.77;;;9.17;;
19739;SDS011;10027;51.066;13.768;2023-02-13T07:59:47;26.23;;;9.17;;
19739;SDS011;10027;51.066;13.768;2023-02-13T08:02:14;24.83;;;9.77;;
19739;SDS011;10027;51.066;13.768;2023-02-13T08:04:42;19.17;;;8.77;;
19739;SDS011;10027;51.066;13.768;2023-02-13T08:07:11;26.00;;;9.93;;
19739;SDS011;10027;51.066;13.768;2023-02-13T08:09:39;21.60;;;9.07;;
19739;SDS011;10027;51.066;13.768;2023-02-13T08:12:24;21.87;;;9.13;;
19739;SDS011;10027;51.066;13.768;2023-02-13T08:14:52;19.97;;;9.03;;
19739;SDS011;10027;51.066;13.768;2023-02-13T08:17:19;21.97;;;9.57;;
19739;SDS011;10027;51.066;13.768;2023-02-13T08:19:46;26.40;;;9.50;;
19739;SDS011;10027;51.066;13.768;2023-02-13T08:22:13;24.60;;;9.37;;
19739;SDS011;10027;51.066;13.768;2023-02-13T08:24:40;22.40;;;8.90;;
19739;SDS011;10027;51.066;13.768;2023-02-13T08:27:10;21.70;;;9.63;;
19739;SDS011;10027;51.066;13.768;2023-02-13T08:29:37;19.63;;;9.10;;
19739;SDS011;10027;51.066;13.768;2023-02-13T08:32:04;17.73;;;8.53;;
19739;SDS011;10027;51.066;13.768;2023-02-13T08:34:32;21.07;;;9.40;;
19739;SDS011;10027;51.066;13.768;2023-02-13T08:37:00;26.13;;;8.97;;
19739;SDS011;10027;51.066;13.768;2023-02-13T08:39:27;24.27;;;9.33;;
19739;SDS011;10027;51.066;13.768;2023-02-13T08:41:54;22.43;;;9.20;;
19739;SDS011;10027;51.066;13.768;2023-02-13T08:44:21;18.23;;;8.70;;
19739;SDS011;10027;51.066;13.768;2023-02-13T08:46:48;21.27;;;8.63;;
19739;SDS011;10027;51.066;13.768;2023-02-13T08:49:15;19.83;;;8.60;;
19739;SDS011;10027;51.066;13.768;2023-02-13T08:51:43;19.37;;;8.47;;
19739;SDS011;10027;51.066;13.768;2023-02-13T08:54:10;17.90;;;9.10;;
19739;SDS011;10027;51.066;13.768;2023-02-13T08:56:37;19.73;;;8.93;;
19739;SDS011;10027;51.066;13.768;2023-02-13T08:59:04;14.93;;;7.70;;
19739;SDS011;10027;51.066;13.768;2023-02-13T09:01:31;16.50;;;7.63;;
19739;SDS011;10027;51.066;13.768;2023-02-13T09:03:58;19.70;;;8.97;;
19739;SDS011;10027;51.066;13.768;2023-02-13T09:06:25;15.10;;;7.67;;
19739;SDS011;10027;51.066;13.768;2023-02-13T09:08:53;16.20;;;7.97;;
19739;SDS011;10027;51.066;13.768;2023-02-13T09:11:20;17.13;;;7.50;;
19739;SDS011;10027;51.066;13.768;2023-02-13T09:13:49;17.47;;;7.57;;
19739;SDS011;10027;51.066;13.768;2023-02-13T09:16:18;16.70;;;7.60;;
19739;SDS011;10027;51.066;13.768;2023-02-13T09:18:46;14.67;;;8.00;;
19739;SDS011;10027;51.066;13.768;2023-02-13T09:21:14;14.73;;;7.83;;
19739;SDS011;10027;51.066;13.768;2023-02-13T09:23:41;16.27;;;7.90;;
19739;SDS011;10027;51.066;13.768;2023-02-13T09:26:09;16.07;;;7.60;;
19739;SDS011;10027;51.066;13.768;2023-02-13T09:28:37;13.87;;;7.43;;
19739;SDS011;10027;51.066;13.768;2023-02-13T09:31:09;16.97;;;7.90;;
19739;SDS011;10027;51.066;13.768;2023-02-13T09:33:36;33.13;;;12.63;;
19739;SDS011;10027;51.066;13.768;2023-02-13T09:36:07;21.17;;;10.00;;
19739;SDS011;10027;51.066;13.768;2023-02-13T09:38:35;19.53;;;9.40;;
19739;SDS011;10027;51.066;13.768;2023-02-13T09:41:04;15.47;;;8.03;;
19739;SDS011;10027;51.066;13.768;2023-02-13T09:43:34;14.67;;;8.17;;
19739;SDS011;10027;51.066;13.768;2023-02-13T09:46:08;17.10;;;9.40;;
19739;SDS011;10027;51.066;13.768;2023-02-13T09:48:38;14.17;;;7.90;;
19739;SDS011;10027;51.066;13.768;2023-02-13T09:51:08;14.10;;;7.87;;
19739;SDS011;10027;51.066;13.768;2023-02-13T09:53:36;16.20;;;8.47;;
19739;SDS011;10027;51.066;13.768;2023-02-13T09:56:09;15.30;;;7.97;;
19739;SDS011;10027;51.066;13.768;2023-02-13T09:58:57;16.13;;;7.90;;
19739;SDS011;10027;51.066;13.768;2023-02-13T10:01:31;14.30;;;7.87;;
19739;SDS011;10027;51.066;13.768;2023-02-13T10:06:28;16.27;;;7.63;;
19739;SDS011;10027;51.066;13.768;2023-02-13T10:14:01;14.43;;;7.10;;
19739;SDS011;10027;51.066;13.768;2023-02-13T10:19:12;17.20;;;7.83;;
19739;SDS011;10027;51.066;13.768;2023-02-13T10:21:41;13.93;;;7.50;;
19739;SDS011;10027;51.066;13.768;2023-02-13T10:24:15;13.33;;;7.00;;
19739;SDS011;10027;51.066;13.768;2023-02-13T10:26:47;14.17;;;7.40;;
19739;SDS011;10027;51.066;13.768;2023-02-13T10:29:21;16.23;;;8.20;;
19739;SDS011;10027;51.066;13.768;2023-02-13T10:32:09;17.27;;;7.60;;
19739;SDS011;10027;51.066;13.768;2023-02-13T10:34:44;14.07;;;7.70;;
19739;SDS011;10027;51.066;13.768;2023-02-13T10:37:17;15.37;;;7.43;;
19739;SDS011;10027;51.066;13.768;2023-02-13T10:39:45;12.20;;;7.07;;
19739;SDS011;10027;51.066;13.768;2023-02-13T10:42:16;14.70;;;7.13;;
19739;SDS011;10027;51.066;13.768;2023-02-13T10:44:54;13.97;;;7.53;;
19739;SDS011;10027;51.066;13.768;2023-02-13T10:50:19;15.23;;;7.33;;
19739;SDS011;10027;51.066;13.768;2023-02-13T10:52:49;12.10;;;6.80;;
19739;SDS011;10027;51.066;13.768;2023-02-13T10:55:30;14.40;;;7.20;;
19739;SDS011;10027;51.066;13.768;2023-02-13T11:00:37;10.50;;;6.10;;
19739;SDS011;10027;51.066;13.768;2023-02-13T11:03:21;11.87;;;6.53;;
19739;SDS011;10027;51.066;13.768;2023-02-13T11:05:49;10.80;;;6.33;;
19739;SDS011;10027;51.066;13.768;2023-02-13T11:08:19;10.43;;;5.93;;
19739;SDS011;10027;51.066;13.768;2023-02-13T11:10:46;11.83;;;6.40;;
19739;SDS011;10027;51.066;13.768;2023-02-13T11:13:18;10.20;;;6.20;;
19739;SDS011;10027;51.066;13.768;2023-02-13T11:18:23;9.53;;;6.27;;
19739;SDS011;10027;51.066;13.768;2023-02-13T11:21:02;8.63;;;5.30;;
19739;SDS011;10027;51.066;13.768;2023-02-13T11:23:37;8.90;;;5.83;;
19739;SDS011;10027;51.066;13.768;2023-02-13T11:26:08;6.90;;;4.70;;
19739;SDS011;10027;51.066;13.768;2023-02-13T11:28:45;9.33;;;5.23;;
19739;SDS011;10027;51.066;13.768;2023-02-13T11:33:41;9.13;;;5.00;;
19739;SDS011;10027;51.066;13.768;2023-02-13T11:36:09;9.30;;;5.80;;
19739;SDS011;10027;51.066;13.768;2023-02-13T11:38:41;11.20;;;5.43;;
19739;SDS011;10027;51.066;13.768;2023-02-13T11:41:10;10.47;;;5.60;;
19739;SDS011;10027;51.066;13.768;2023-02-13T11:43:52;8.30;;;5.40;;
19739;SDS011;10027;51.066;13.768;2023-02-13T11:46:29;8.57;;;5.60;;
19739;SDS011;10027;51.066;13.768;2023-02-13T11:49:01;8.77;;;5.37;;
19739;SDS011;10027;51.066;13.768;2023-02-13T11:51:48;9.30;;;5.83;;
19739;SDS011;10027;51.066;13.768;2023-02-13T11:59:32;10.43;;;5.60;;
19739;SDS011;10027;51.066;13.768;2023-02-13T12:02:23;9.63;;;5.97;;
19739;SDS011;10027;51.066;13.768;2023-02-13T12:04:52;9.33;;;5.87;;
19739;SDS011;10027;51.066;13.768;2023-02-13T12:09:52;8.47;;;5.67;;
19739;SDS011;10027;51.066;13.768;2023-02-13T12:12:28;9.60;;;5.53;;
19739;SDS011;10027;51.066;13.768;2023-02-13T12:14:55;9.73;;;5.40;;
19739;SDS011;10027;51.066;13.768;2023-02-13T12:17:24;7.83;;;5.67;;
19739;SDS011;10027;51.066;13.768;2023-02-13T12:19:57;8.80;;;5.50;;
19739;SDS011;10027;51.066;13.768;2023-02-13T12:37:47;8.47;;;5.87;;
19739;SDS011;10027;51.066;13.768;2023-02-13T12:43:03;9.60;;;5.90;;
19739;SDS011;10027;51.066;13.768;2023-02-13T12:45:38;10.63;;;6.60;;
19739;SDS011;10027;51.066;13.768;2023-02-13T13:27:21;8.20;;;4.80;;
19739;SDS011;10027;51.066;13.768;2023-02-13T13:30:03;5.93;;;4.17;;
19739;SDS011;10027;51.066;13.768;2023-02-13T13:32:32;6.13;;;4.63;;
19739;SDS011;10027;51.066;13.768;2023-02-13T13:35:00;8.83;;;5.37;;
19739;SDS011;10027;51.066;13.768;2023-02-13T13:42:50;5.80;;;4.27;;
19739;SDS011;10027;51.066;13.768;2023-02-13T13:45:41;6.33;;;3.93;;
19739;SDS011;10027;51.066;13.768;2023-02-13T13:50:57;5.30;;;4.10;;
19739;SDS011;10027;51.066;13.768;2023-02-13T13:53:25;6.07;;;4.07;;
19739;SDS011;10027;51.066;13.768;2023-02-13T14:03:49;6.43;;;4.33;;
19739;SDS011;10027;51.066;13.768;2023-02-13T14:06:21;5.83;;;4.20;;
19739;SDS011;10027;51.066;13.768;2023-02-13T14:08:54;7.30;;;4.60;;
19739;SDS011;10027;51.066;13.768;2023-02-13T14:11:28;5.57;;;4.20;;
19739;SDS011;10027;51.066;13.768;2023-02-13T14:13:56;6.10;;;4.10;;
19739;SDS011;10027;51.066;13.768;2023-02-13T14:19:04;5.93;;;4.20;;
19739;SDS011;10027;51.066;13.768;2023-02-13T14:21:31;6.33;;;4.63;;
19739;SDS011;10027;51.066;13.768;2023-02-13T14:23:58;7.23;;;4.77;;
19739;SDS011;10027;51.066;13.768;2023-02-13T14:26:33;7.70;;;4.33;;
19739;SDS011;10027;51.066;13.768;2023-02-13T14:29:14;5.87;;;4.13;;
19739;SDS011;10027;51.066;13.768;2023-02-13T14:31:49;7.13;;;5.20;;
19739;SDS011;10027;51.066;13.768;2023-02-13T14:34:19;7.77;;;4.70;;
19739;SDS011;10027;51.066;13.768;2023-02-13T14:39:32;6.27;;;4.57;;
19739;SDS011;10027;51.066;13.768;2023-02-13T14:42:24;7.63;;;5.10;;
19739;SDS011;10027;51.066;13.768;2023-02-13T14:44:50;7.43;;;4.83;;
19739;SDS011;10027;51.066;13.768;2023-02-13T14:47:25;7.57;;;4.93;;
19739;SDS011;10027;51.066;13.768;2023-02-13T14:49:54;7.23;;;4.87;;
19739;SDS011;10027;51.066;13.768;2023-02-13T14:52:26;7.27;;;5.17;;
19739;SDS011;10027;51.066;13.768;2023-02-13T14:54:59;7.93;;;5.17;;
19739;SDS011;10027;51.066;13.768;2023-02-13T14:57:30;7.77;;;4.90;;
19739;SDS011;10027;51.066;13.768;2023-02-13T15:02:45;8.37;;;5.47;;
19739;SDS011;10027;51.066;13.768;2023-02-13T15:05:15;7.77;;;5.17;;
19739;SDS011;10027;51.066;13.768;2023-02-13T15:07:49;7.30;;;5.10;;
19739;SDS011;10027;51.066;13.768;2023-02-13T15:12:57;8.10;;;5.77;;
19739;SDS011;10027;51.066;13.768;2023-02-13T15:15:26;7.97;;;5.43;;
19739;SDS011;10027;51.066;13.768;2023-02-13T15:17:54;9.93;;;5.90;;
19739;SDS011;10027;51.066;13.768;2023-02-13T15:20:24;9.30;;;5.93;;
19739;SDS011;10027;51.066;13.768;2023-02-13T15:22:52;8.30;;;5.67;;
19739;SDS011;10027;51.066;13.768;2023-02-13T15:25:38;10.90;;;5.57;;
19739;SDS011;10027;51.066;13.768;2023-02-13T15:28:06;8.67;;;5.93;;
19739;SDS011;10027;51.066;13.768;2023-02-13T15:30:34;8.63;;;5.70;;
19739;SDS011;10027;51.066;13.768;2023-02-13T15:33:03;9.73;;;5.83;;
19739;SDS011;10027;51.066;13.768;2023-02-13T15:35:31;12.67;;;6.70;;
19739;SDS011;10027;51.066;13.768;2023-02-13T15:37:59;8.73;;;5.80;;
19739;SDS011;10027;51.066;13.768;2023-02-13T15:40:42;9.80;;;5.93;;
19739;SDS011;10027;51.066;13.768;2023-02-13T15:43:32;9.63;;;6.50;;
19739;SDS011;10027;51.066;13.768;2023-02-13T15:45:58;11.00;;;6.53;;
19739;SDS011;10027;51.066;13.768;2023-02-13T15:48:26;9.00;;;6.07;;
19739;SDS011;10027;51.066;13.768;2023-02-13T15:50:54;10.87;;;6.10;;
19739;SDS011;10027;51.066;13.768;2023-02-13T15:53:22;9.57;;;6.27;;
19739;SDS011;10027;51.066;13.768;2023-02-13T15:55:56;11.30;;;6.47;;
19739;SDS011;10027;51.066;13.768;2023-02-13T15:58:24;10.30;;;6.80;;
19739;SDS011;10027;51.066;13.768;2023-02-13T16:00:52;9.37;;;6.20;;
19739;SDS011;10027;51.066;13.768;2023-02-13T16:03:19;10.63;;;6.60;;
19739;SDS011;10027;51.066;13.768;2023-02-13T16:05:46;12.67;;;7.40;;
19739;SDS011;10027;51.066;13.768;2023-02-13T16:13:36;14.47;;;7.40;;
19739;SDS011;10027;51.066;13.768;2023-02-13T16:16:07;12.07;;;7.30;;
19739;SDS011;10027;51.066;13.768;2023-02-13T16:18:34;11.47;;;7.20;;
19739;SDS011;10027;51.066;13.768;2023-02-13T16:21:02;12.63;;;7.60;;
19739;SDS011;10027;51.066;13.768;2023-02-13T16:23:32;12.30;;;7.10;;
19739;SDS011;10027;51.066;13.768;2023-02-13T16:26:00;10.53;;;6.80;;
19739;SDS011;10027;51.066;13.768;2023-02-13T16:28:28;9.13;;;6.20;;
19739;SDS011;10027;51.066;13.768;2023-02-13T16:30:58;10.73;;;6.77;;
19739;SDS011;10027;51.066;13.768;2023-02-13T16:35:57;10.30;;;6.60;;
19739;SDS011;10027;51.066;13.768;2023-02-13T16:40:56;12.60;;;7.30;;
19739;SDS011;10027;51.066;13.768;2023-02-13T16:53:55;11.67;;;7.40;;
19739;SDS011;10027;51.066;13.768;2023-02-13T16:56:22;11.03;;;7.10;;
19739;SDS011;10027;51.066;13.768;2023-02-13T16:58:49;12.27;;;7.30;;
19739;SDS011;10027;51.066;13.768;2023-02-13T17:01:16;11.90;;;7.27;;
19739;SDS011;10027;51.066;13.768;2023-02-13T17:03:43;13.63;;;7.70;;
19739;SDS011;10027;51.066;13.768;2023-02-13T17:06:11;12.23;;;7.83;;
19739;SDS011;10027;51.066;13.768;2023-02-13T17:08:40;11.03;;;7.27;;
19739;SDS011;10027;51.066;13.768;2023-02-13T17:11:08;14.07;;;8.00;;
19739;SDS011;10027;51.066;13.768;2023-02-13T17:13:42;12.37;;;7.67;;
19739;SDS011;10027;51.066;13.768;2023-02-13T17:16:09;12.70;;;7.90;;
19739;SDS011;10027;51.066;13.768;2023-02-13T17:18:37;11.20;;;7.33;;
19739;SDS011;10027;51.066;13.768;2023-02-13T17:21:04;11.30;;;7.50;;
19739;SDS011;10027;51.066;13.768;2023-02-13T17:23:31;14.33;;;7.70;;
19739;SDS011;10027;51.066;13.768;2023-02-13T17:25:58;13.97;;;8.27;;
19739;SDS011;10027;51.066;13.768;2023-02-13T17:28:26;12.97;;;7.90;;
19739;SDS011;10027;51.066;13.768;2023-02-13T17:30:56;12.63;;;7.83;;
19739;SDS011;10027;51.066;13.768;2023-02-13T17:33:25;11.73;;;7.57;;
19739;SDS011;10027;51.066;13.768;2023-02-13T17:35:53;12.70;;;8.17;;
19739;SDS011;10027;51.066;13.768;2023-02-13T17:38:20;12.70;;;7.90;;
19739;SDS011;10027;51.066;13.768;2023-02-13T17:40:47;13.30;;;8.03;;
19739;SDS011;10027;51.066;13.768;2023-02-13T17:43:15;14.43;;;8.57;;
19739;SDS011;10027;51.066;13.768;2023-02-13T17:45:42;13.70;;;8.43;;
19739;SDS011;10027;51.066;13.768;2023-02-13T17:48:10;14.80;;;8.53;;